sensor_id;sensor_type;location;lat;lon;timestamp;temperature;humidity
18876;DHT22;9570;50.854;13.778;2023-03-12T00:00:42;-1.60;99.90
18876;DHT22;9570;50.854;13.778;2023-03-12T00:03:08;-1.60;99.90
18876;DHT22;9570;50.854;13.778;2023-03-12T00:05:37;-1.60;99.90
18876;DHT22;9570;50.854;13.778;2023-03-12T00:08:02;-1.60;99.90
18876;DHT22;9570;50.854;13.778;2023-03-12T00:10:28;-1.60;99.90
18876;DHT22;9570;50.854;13.778;2023-03-12T00:12:54;-1.60;99.90
18876;DHT22;9570;50.854;13.778;2023-03-12T00:15:20;-1.60;99.90
18876;DHT22;9570;50.854;13.778;2023-03-12T00:17:45;-1.60;99.90
18876;DHT22;9570;50.854;13.778;2023-03-12T00:20:11;-1.60;99.90
18876;DHT22;9570;50.854;13.778;2023-03-12T00:22:37;-1.50;99.90
18876;DHT22;9570;50.854;13.778;2023-03-12T00:25:03;-1.50;99.90
18876;DHT22;9570;50.854;13.778;2023-03-12T00:27:29;-1.50;99.90
18876;DHT22;9570;50.854;13.778;2023-03-12T00:29:55;-1.40;99.90
18876;DHT22;9570;50.854;13.778;2023-03-12T00:32:21;-1.40;99.90
18876;DHT22;9570;50.854;13.778;2023-03-12T00:34:53;-1.40;99.90
18876;DHT22;9570;50.854;13.778;2023-03-12T00:37:19;-1.40;99.90
18876;DHT22;9570;50.854;13.778;2023-03-12T00:39:45;-1.40;99.90
18876;DHT22;9570;50.854;13.778;2023-03-12T00:42:11;-1.50;99.90
18876;DHT22;9570;50.854;13.778;2023-03-12T00:44:36;-1.40;99.90
18876;DHT22;9570;50.854;13.778;2023-03-12T00:47:02;-1.40;99.90
18876;DHT22;9570;50.854;13.778;2023-03-12T00:49:27;-1.40;99.90
18876;DHT22;9570;50.854;13.778;2023-03-12T00:51:53;-1.50;99.90
18876;DHT22;9570;50.854;13.778;2023-03-12T00:54:19;-1.50;99.90
18876;DHT22;9570;50.854;13.778;2023-03-12T00:56:44;-1.50;99.90
18876;DHT22;9570;50.854;13.778;2023-03-12T00:59:11;-1.50;99.90
18876;DHT22;9570;50.854;13.778;2023-03-12T01:01:37;-1.50;99.90
18876;DHT22;9570;50.854;13.778;2023-03-12T01:04:02;-1.50;99.90
18876;DHT22;9570;50.854;13.778;2023-03-12T01:06:28;-1.60;99.90
18876;DHT22;9570;50.854;13.778;2023-03-12T01:08:53;-1.60;99.90
18876;DHT22;9570;50.854;13.778;2023-03-12T01:11:20;-1.50;99.90
18876;DHT22;9570;50.854;13.778;2023-03-12T01:13:47;-1.50;99.90
18876;DHT22;9570;50.854;13.778;2023-03-12T01:16:12;-1.50;99.90
18876;DHT22;9570;50.854;13.778;2023-03-12T01:18:38;-1.50;99.90
18876;DHT22;9570;50.854;13.778;2023-03-12T01:21:04;-1.50;99.90
18876;DHT22;9570;50.854;13.778;2023-03-12T01:23:30;-1.60;99.90
18876;DHT22;9570;50.854;13.778;2023-03-12T01:25:55;-1.60;99.90
18876;DHT22;9570;50.854;13.778;2023-03-12T01:28:22;-1.60;99.90
18876;DHT22;9570;50.854;13.778;2023-03-12T01:30:48;-1.60;99.90
18876;DHT22;9570;50.854;13.778;2023-03-12T01:33:14;-1.60;99.90
18876;DHT22;9570;50.854;13.778;2023-03-12T01:35:40;-1.60;99.90
18876;DHT22;9570;50.854;13.778;2023-03-12T01:38:07;-1.60;99.90
18876;DHT22;9570;50.854;13.778;2023-03-12T01:40:35;-1.70;99.90
18876;DHT22;9570;50.854;13.778;2023-03-12T01:43:22;-1.70;99.90
18876;DHT22;9570;50.854;13.778;2023-03-12T01:48:46;-1.70;99.90
18876;DHT22;9570;50.854;13.778;2023-03-12T01:51:14;-1.70;99.90
18876;DHT22;9570;50.854;13.778;2023-03-12T01:53:42;-1.70;99.90
18876;DHT22;9570;50.854;13.778;2023-03-12T01:56:10;-1.60;99.90
18876;DHT22;9570;50.854;13.778;2023-03-12T01:58:37;-1.60;99.90
18876;DHT22;9570;50.854;13.778;2023-03-12T02:01:05;-1.60;99.90
18876;DHT22;9570;50.854;13.778;2023-03-12T02:03:31;-1.70;99.90
18876;DHT22;9570;50.854;13.778;2023-03-12T02:06:02;-1.60;99.90
18876;DHT22;9570;50.854;13.778;2023-03-12T02:08:31;-1.60;99.90
18876;DHT22;9570;50.854;13.778;2023-03-12T02:10:59;-1.60;99.90
18876;DHT22;9570;50.854;13.778;2023-03-12T02:13:25;-1.60;99.90
18876;DHT22;9570;50.854;13.778;2023-03-12T02:15:52;-1.60;99.90
18876;DHT22;9570;50.854;13.778;2023-03-12T02:18:18;-1.50;99.90
18876;DHT22;9570;50.854;13.778;2023-03-12T02:20:55;-1.50;99.90
18876;DHT22;9570;50.854;13.778;2023-03-12T02:23:31;-1.50;99.90
18876;DHT22;9570;50.854;13.778;2023-03-12T02:25:59;-1.40;99.90
18876;DHT22;9570;50.854;13.778;2023-03-12T02:28:28;-1.40;99.90
18876;DHT22;9570;50.854;13.778;2023-03-12T02:30:58;-1.40;99.90
18876;DHT22;9570;50.854;13.778;2023-03-12T02:33:25;-1.50;99.90
18876;DHT22;9570;50.854;13.778;2023-03-12T02:35:51;-1.50;99.90
18876;DHT22;9570;50.854;13.778;2023-03-12T02:38:31;-1.40;99.90
18876;DHT22;9570;50.854;13.778;2023-03-12T02:41:00;-1.40;99.90
18876;DHT22;9570;50.854;13.778;2023-03-12T02:43:28;-1.40;99.90
18876;DHT22;9570;50.854;13.778;2023-03-12T02:45:54;-1.40;99.90
18876;DHT22;9570;50.854;13.778;2023-03-12T02:48:20;-1.50;99.90
18876;DHT22;9570;50.854;13.778;2023-03-12T02:50:45;-1.40;99.90
18876;DHT22;9570;50.854;13.778;2023-03-12T02:53:11;-1.40;99.90
18876;DHT22;9570;50.854;13.778;2023-03-12T02:55:37;-1.40;99.90
18876;DHT22;9570;50.854;13.778;2023-03-12T02:58:02;-1.50;99.90
18876;DHT22;9570;50.854;13.778;2023-03-12T03:00:28;-1.40;99.90
18876;DHT22;9570;50.854;13.778;2023-03-12T03:03:00;-1.50;99.90
18876;DHT22;9570;50.854;13.778;2023-03-12T03:05:26;-1.50;99.90
18876;DHT22;9570;50.854;13.778;2023-03-12T03:07:51;-1.50;99.90
18876;DHT22;9570;50.854;13.778;2023-03-12T03:10:17;-1.60;99.90
18876;DHT22;9570;50.854;13.778;2023-03-12T03:12:43;-1.70;99.90
18876;DHT22;9570;50.854;13.778;2023-03-12T03:15:09;-1.70;99.90
18876;DHT22;9570;50.854;13.778;2023-03-12T03:17:35;-1.70;99.90
18876;DHT22;9570;50.854;13.778;2023-03-12T03:20:01;-1.70;99.90
18876;DHT22;9570;50.854;13.778;2023-03-12T03:22:31;-1.70;99.90
18876;DHT22;9570;50.854;13.778;2023-03-12T03:24:56;-1.70;99.90
18876;DHT22;9570;50.854;13.778;2023-03-12T03:27:22;-1.80;99.90
18876;DHT22;9570;50.854;13.778;2023-03-12T03:29:47;-1.70;99.90
18876;DHT22;9570;50.854;13.778;2023-03-12T03:32:13;-1.80;99.90
18876;DHT22;9570;50.854;13.778;2023-03-12T03:34:38;-1.80;99.90
18876;DHT22;9570;50.854;13.778;2023-03-12T03:37:04;-1.90;99.90
18876;DHT22;9570;50.854;13.778;2023-03-12T03:39:30;-1.90;99.90
18876;DHT22;9570;50.854;13.778;2023-03-12T03:41:55;-1.90;99.90
18876;DHT22;9570;50.854;13.778;2023-03-12T03:44:21;-1.80;99.90
18876;DHT22;9570;50.854;13.778;2023-03-12T03:46:47;-1.80;99.90
18876;DHT22;9570;50.854;13.778;2023-03-12T03:49:13;-1.80;99.90
18876;DHT22;9570;50.854;13.778;2023-03-12T03:51:39;-1.80;99.90
18876;DHT22;9570;50.854;13.778;2023-03-12T03:54:07;-1.90;99.90
18876;DHT22;9570;50.854;13.778;2023-03-12T03:56:33;-1.80;99.90
18876;DHT22;9570;50.854;13.778;2023-03-12T03:58:58;-1.80;99.90
18876;DHT22;9570;50.854;13.778;2023-03-12T04:01:26;-1.80;99.90
18876;DHT22;9570;50.854;13.778;2023-03-12T04:03:51;-1.80;99.90
18876;DHT22;9570;50.854;13.778;2023-03-12T04:06:17;-1.90;99.90
18876;DHT22;9570;50.854;13.778;2023-03-12T04:08:42;-2.00;99.90
18876;DHT22;9570;50.854;13.778;2023-03-12T04:11:14;-2.00;99.90
18876;DHT22;9570;50.854;13.778;2023-03-12T04:13:40;-1.90;99.90
18876;DHT22;9570;50.854;13.778;2023-03-12T04:16:07;-2.00;99.90
18876;DHT22;9570;50.854;13.778;2023-03-12T04:18:33;-2.10;99.90
18876;DHT22;9570;50.854;13.778;2023-03-12T04:21:00;-2.10;99.90
18876;DHT22;9570;50.854;13.778;2023-03-12T04:23:26;-2.10;99.90
18876;DHT22;9570;50.854;13.778;2023-03-12T04:25:51;-2.00;99.90
18876;DHT22;9570;50.854;13.778;2023-03-12T04:28:17;-2.00;99.90
18876;DHT22;9570;50.854;13.778;2023-03-12T04:30:42;-2.00;99.90
18876;DHT22;9570;50.854;13.778;2023-03-12T04:33:08;-2.00;99.90
18876;DHT22;9570;50.854;13.778;2023-03-12T04:35:33;-2.00;99.90
18876;DHT22;9570;50.854;13.778;2023-03-12T04:38:02;-2.00;99.90
18876;DHT22;9570;50.854;13.778;2023-03-12T04:40:29;-2.00;99.90
18876;DHT22;9570;50.854;13.778;2023-03-12T04:42:54;-2.00;99.90
18876;DHT22;9570;50.854;13.778;2023-03-12T04:45:20;-2.00;99.90
18876;DHT22;9570;50.854;13.778;2023-03-12T04:47:45;-2.20;99.90
18876;DHT22;9570;50.854;13.778;2023-03-12T04:50:11;-2.20;99.90
18876;DHT22;9570;50.854;13.778;2023-03-12T04:52:37;-2.20;99.90
18876;DHT22;9570;50.854;13.778;2023-03-12T04:55:03;-2.20;99.90
18876;DHT22;9570;50.854;13.778;2023-03-12T04:57:29;-2.20;99.90
18876;DHT22;9570;50.854;13.778;2023-03-12T04:59:55;-2.20;99.90
18876;DHT22;9570;50.854;13.778;2023-03-12T05:02:20;-2.10;99.90
18876;DHT22;9570;50.854;13.778;2023-03-12T05:04:46;-2.10;99.90
18876;DHT22;9570;50.854;13.778;2023-03-12T05:07:11;-2.10;99.90
18876;DHT22;9570;50.854;13.778;2023-03-12T05:09:37;-2.20;99.90
18876;DHT22;9570;50.854;13.778;2023-03-12T05:12:02;-2.20;99.90
18876;DHT22;9570;50.854;13.778;2023-03-12T05:14:28;-2.20;99.90
18876;DHT22;9570;50.854;13.778;2023-03-12T05:16:53;-2.20;99.90
18876;DHT22;9570;50.854;13.778;2023-03-12T05:19:19;-2.20;99.90
18876;DHT22;9570;50.854;13.778;2023-03-12T05:21:44;-2.20;99.90
18876;DHT22;9570;50.854;13.778;2023-03-12T05:24:11;-2.20;99.90
18876;DHT22;9570;50.854;13.778;2023-03-12T05:26:37;-2.20;99.90
18876;DHT22;9570;50.854;13.778;2023-03-12T05:29:03;-2.20;99.90
18876;DHT22;9570;50.854;13.778;2023-03-12T05:31:30;-2.30;99.90
18876;DHT22;9570;50.854;13.778;2023-03-12T05:34:00;-2.20;99.90
18876;DHT22;9570;50.854;13.778;2023-03-12T05:36:25;-2.20;99.90
18876;DHT22;9570;50.854;13.778;2023-03-12T05:38:51;-2.20;99.90
18876;DHT22;9570;50.854;13.778;2023-03-12T05:41:20;-2.20;99.90
18876;DHT22;9570;50.854;13.778;2023-03-12T05:43:46;-2.20;99.90
18876;DHT22;9570;50.854;13.778;2023-03-12T05:46:11;-2.20;99.90
18876;DHT22;9570;50.854;13.778;2023-03-12T05:48:36;-2.30;99.90
18876;DHT22;9570;50.854;13.778;2023-03-12T05:51:02;-2.20;99.90
18876;DHT22;9570;50.854;13.778;2023-03-12T05:53:27;-2.10;99.90
18876;DHT22;9570;50.854;13.778;2023-03-12T05:55:53;-2.10;99.90
18876;DHT22;9570;50.854;13.778;2023-03-12T05:58:18;-2.10;99.90
18876;DHT22;9570;50.854;13.778;2023-03-12T06:00:44;-2.10;99.90
18876;DHT22;9570;50.854;13.778;2023-03-12T06:03:10;-2.10;99.90
18876;DHT22;9570;50.854;13.778;2023-03-12T06:05:36;-2.10;99.90
18876;DHT22;9570;50.854;13.778;2023-03-12T06:08:02;-2.00;99.90
18876;DHT22;9570;50.854;13.778;2023-03-12T06:10:28;-2.00;99.90
18876;DHT22;9570;50.854;13.778;2023-03-12T06:12:54;-1.90;99.90
18876;DHT22;9570;50.854;13.778;2023-03-12T06:15:20;-1.80;99.90
18876;DHT22;9570;50.854;13.778;2023-03-12T06:17:45;-1.70;99.90
18876;DHT22;9570;50.854;13.778;2023-03-12T06:20:11;-1.70;99.90
18876;DHT22;9570;50.854;13.778;2023-03-12T06:22:37;-1.60;99.90
18876;DHT22;9570;50.854;13.778;2023-03-12T06:25:03;-1.60;99.90
18876;DHT22;9570;50.854;13.778;2023-03-12T06:27:29;-1.50;99.90
18876;DHT22;9570;50.854;13.778;2023-03-12T06:29:54;-1.50;99.90
18876;DHT22;9570;50.854;13.778;2023-03-12T06:32:20;-1.40;99.90
18876;DHT22;9570;50.854;13.778;2023-03-12T06:34:45;-1.40;99.90
18876;DHT22;9570;50.854;13.778;2023-03-12T06:37:11;-1.30;99.90
18876;DHT22;9570;50.854;13.778;2023-03-12T06:39:37;-1.30;99.90
18876;DHT22;9570;50.854;13.778;2023-03-12T06:42:03;-1.30;99.90
18876;DHT22;9570;50.854;13.778;2023-03-12T06:44:28;-1.30;99.90
18876;DHT22;9570;50.854;13.778;2023-03-12T06:46:54;-1.20;99.90
18876;DHT22;9570;50.854;13.778;2023-03-12T06:49:19;-1.20;99.90
18876;DHT22;9570;50.854;13.778;2023-03-12T06:51:45;-1.10;99.90
18876;DHT22;9570;50.854;13.778;2023-03-12T06:54:10;-1.10;99.90
18876;DHT22;9570;50.854;13.778;2023-03-12T06:56:36;-1.00;99.90
18876;DHT22;9570;50.854;13.778;2023-03-12T06:59:02;-0.90;99.90
18876;DHT22;9570;50.854;13.778;2023-03-12T07:01:28;-0.90;99.90
18876;DHT22;9570;50.854;13.778;2023-03-12T07:03:53;-0.70;99.90
18876;DHT22;9570;50.854;13.778;2023-03-12T07:06:20;-0.40;99.90
18876;DHT22;9570;50.854;13.778;2023-03-12T07:08:47;-0.30;99.90
18876;DHT22;9570;50.854;13.778;2023-03-12T07:11:13;-0.20;99.90
18876;DHT22;9570;50.854;13.778;2023-03-12T07:13:40;-0.10;99.90
18876;DHT22;9570;50.854;13.778;2023-03-12T07:16:06;0.00;99.90
18876;DHT22;9570;50.854;13.778;2023-03-12T07:18:32;0.10;99.90
18876;DHT22;9570;50.854;13.778;2023-03-12T07:20:57;0.40;99.90
18876;DHT22;9570;50.854;13.778;2023-03-12T07:23:23;0.80;99.90
18876;DHT22;9570;50.854;13.778;2023-03-12T07:25:49;1.50;99.90
18876;DHT22;9570;50.854;13.778;2023-03-12T07:28:16;2.10;99.90
18876;DHT22;9570;50.854;13.778;2023-03-12T07:30:41;2.90;99.90
18876;DHT22;9570;50.854;13.778;2023-03-12T07:33:11;3.40;99.90
18876;DHT22;9570;50.854;13.778;2023-03-12T07:35:37;3.90;99.90
18876;DHT22;9570;50.854;13.778;2023-03-12T07:38:03;4.60;99.90
18876;DHT22;9570;50.854;13.778;2023-03-12T07:40:30;4.90;99.90
18876;DHT22;9570;50.854;13.778;2023-03-12T07:42:55;5.00;99.90
18876;DHT22;9570;50.854;13.778;2023-03-12T07:45:22;4.90;99.90
18876;DHT22;9570;50.854;13.778;2023-03-12T07:47:48;4.70;99.90
18876;DHT22;9570;50.854;13.778;2023-03-12T07:50:14;5.40;99.90
18876;DHT22;9570;50.854;13.778;2023-03-12T07:52:40;6.10;99.90
18876;DHT22;9570;50.854;13.778;2023-03-12T07:55:06;6.30;99.90
18876;DHT22;9570;50.854;13.778;2023-03-12T07:57:32;6.10;99.90
18876;DHT22;9570;50.854;13.778;2023-03-12T07:59:57;6.50;99.90
18876;DHT22;9570;50.854;13.778;2023-03-12T08:02:23;7.10;99.90
18876;DHT22;9570;50.854;13.778;2023-03-12T08:04:48;7.20;99.90
18876;DHT22;9570;50.854;13.778;2023-03-12T08:07:14;7.00;99.90
18876;DHT22;9570;50.854;13.778;2023-03-12T08:09:40;6.20;99.90
18876;DHT22;9570;50.854;13.778;2023-03-12T08:12:06;6.10;99.90
18876;DHT22;9570;50.854;13.778;2023-03-12T08:14:32;6.60;99.90
18876;DHT22;9570;50.854;13.778;2023-03-12T08:16:58;6.40;99.90
18876;DHT22;9570;50.854;13.778;2023-03-12T08:19:24;5.80;99.90
18876;DHT22;9570;50.854;13.778;2023-03-12T08:21:50;6.10;99.90
18876;DHT22;9570;50.854;13.778;2023-03-12T08:24:18;6.10;99.90
18876;DHT22;9570;50.854;13.778;2023-03-12T08:26:44;5.90;99.90
18876;DHT22;9570;50.854;13.778;2023-03-12T08:29:09;5.60;99.90
18876;DHT22;9570;50.854;13.778;2023-03-12T08:31:34;5.40;99.90
18876;DHT22;9570;50.854;13.778;2023-03-12T08:34:00;5.70;99.90
18876;DHT22;9570;50.854;13.778;2023-03-12T08:36:25;6.00;99.90
18876;DHT22;9570;50.854;13.778;2023-03-12T08:38:51;6.00;99.90
18876;DHT22;9570;50.854;13.778;2023-03-12T08:41:16;6.30;99.90
18876;DHT22;9570;50.854;13.778;2023-03-12T08:43:42;6.80;99.90
18876;DHT22;9570;50.854;13.778;2023-03-12T08:46:08;7.30;99.90
18876;DHT22;9570;50.854;13.778;2023-03-12T08:48:33;7.20;99.90
18876;DHT22;9570;50.854;13.778;2023-03-12T08:51:00;7.50;99.90
18876;DHT22;9570;50.854;13.778;2023-03-12T08:53:29;7.30;99.90
18876;DHT22;9570;50.854;13.778;2023-03-12T08:55:55;7.30;99.90
18876;DHT22;9570;50.854;13.778;2023-03-12T08:58:22;7.00;99.90
18876;DHT22;9570;50.854;13.778;2023-03-12T09:00:49;7.00;99.90
18876;DHT22;9570;50.854;13.778;2023-03-12T09:03:14;7.00;99.90
18876;DHT22;9570;50.854;13.778;2023-03-12T09:05:41;6.80;99.90
18876;DHT22;9570;50.854;13.778;2023-03-12T09:08:07;7.00;99.90
18876;DHT22;9570;50.854;13.778;2023-03-12T09:10:33;6.70;99.90
18876;DHT22;9570;50.854;13.778;2023-03-12T09:12:59;6.20;99.90
18876;DHT22;9570;50.854;13.778;2023-03-12T09:15:24;5.50;99.90
18876;DHT22;9570;50.854;13.778;2023-03-12T09:17:50;5.20;99.90
18876;DHT22;9570;50.854;13.778;2023-03-12T09:20:16;4.90;99.90
18876;DHT22;9570;50.854;13.778;2023-03-12T09:22:42;5.00;99.90
18876;DHT22;9570;50.854;13.778;2023-03-12T09:25:09;4.90;99.90
18876;DHT22;9570;50.854;13.778;2023-03-12T09:27:40;5.00;99.90
18876;DHT22;9570;50.854;13.778;2023-03-12T09:30:08;5.00;99.90
18876;DHT22;9570;50.854;13.778;2023-03-12T09:32:34;5.10;99.90
18876;DHT22;9570;50.854;13.778;2023-03-12T09:35:00;5.30;99.90
18876;DHT22;9570;50.854;13.778;2023-03-12T09:37:25;5.60;99.90
18876;DHT22;9570;50.854;13.778;2023-03-12T09:39:51;5.80;99.90
18876;DHT22;9570;50.854;13.778;2023-03-12T09:45:12;6.30;99.90
18876;DHT22;9570;50.854;13.778;2023-03-12T09:47:50;6.40;99.90
18876;DHT22;9570;50.854;13.778;2023-03-12T09:50:32;6.90;99.90
18876;DHT22;9570;50.854;13.778;2023-03-12T09:53:12;6.80;99.90
18876;DHT22;9570;50.854;13.778;2023-03-12T09:55:42;7.10;99.90
18876;DHT22;9570;50.854;13.778;2023-03-12T09:58:13;7.60;99.90
18876;DHT22;9570;50.854;13.778;2023-03-12T10:00:41;7.50;99.90
18876;DHT22;9570;50.854;13.778;2023-03-12T10:03:19;7.30;99.90
18876;DHT22;9570;50.854;13.778;2023-03-12T10:06:01;7.30;99.90
18876;DHT22;9570;50.854;13.778;2023-03-12T10:08:52;7.30;99.90
18876;DHT22;9570;50.854;13.778;2023-03-12T10:14:29;7.70;99.90
18876;DHT22;9570;50.854;13.778;2023-03-12T10:20:07;8.40;99.90
18876;DHT22;9570;50.854;13.778;2023-03-12T10:22:54;8.30;99.90
18876;DHT22;9570;50.854;13.778;2023-03-12T10:28:16;8.40;99.90
18876;DHT22;9570;50.854;13.778;2023-03-12T10:30:52;7.90;99.90
18876;DHT22;9570;50.854;13.778;2023-03-12T10:33:20;7.70;99.90
18876;DHT22;9570;50.854;13.778;2023-03-12T10:35:49;7.70;99.90
18876;DHT22;9570;50.854;13.778;2023-03-12T10:38:35;7.70;99.90
18876;DHT22;9570;50.854;13.778;2023-03-12T10:41:12;7.30;99.90
18876;DHT22;9570;50.854;13.778;2023-03-12T10:43:37;7.30;99.90
18876;DHT22;9570;50.854;13.778;2023-03-12T10:46:34;7.30;99.90
18876;DHT22;9570;50.854;13.778;2023-03-12T10:49:25;7.20;99.90
18876;DHT22;9570;50.854;13.778;2023-03-12T10:51:59;7.00;99.90
18876;DHT22;9570;50.854;13.778;2023-03-12T10:54:32;6.90;99.90
18876;DHT22;9570;50.854;13.778;2023-03-12T10:56:57;6.60;99.90
18876;DHT22;9570;50.854;13.778;2023-03-12T10:59:30;6.60;99.90
18876;DHT22;9570;50.854;13.778;2023-03-12T11:01:56;6.60;99.90
18876;DHT22;9570;50.854;13.778;2023-03-12T11:04:31;6.70;99.90
18876;DHT22;9570;50.854;13.778;2023-03-12T11:09:39;6.60;99.90
18876;DHT22;9570;50.854;13.778;2023-03-12T11:12:26;6.60;99.90
18876;DHT22;9570;50.854;13.778;2023-03-12T11:14:52;6.60;99.90
18876;DHT22;9570;50.854;13.778;2023-03-12T11:17:26;6.60;99.90
18876;DHT22;9570;50.854;13.778;2023-03-12T11:19:52;6.50;99.90
18876;DHT22;9570;50.854;13.778;2023-03-12T11:22:32;6.50;99.90
18876;DHT22;9570;50.854;13.778;2023-03-12T11:25:01;6.50;99.90
18876;DHT22;9570;50.854;13.778;2023-03-12T11:27:42;6.60;99.90
18876;DHT22;9570;50.854;13.778;2023-03-12T11:30:16;6.70;99.90
18876;DHT22;9570;50.854;13.778;2023-03-12T11:32:45;6.50;99.90
18876;DHT22;9570;50.854;13.778;2023-03-12T11:35:16;6.50;99.90
18876;DHT22;9570;50.854;13.778;2023-03-12T11:38:06;6.60;99.90
18876;DHT22;9570;50.854;13.778;2023-03-12T11:46:47;6.20;99.90
18876;DHT22;9570;50.854;13.778;2023-03-12T11:52:07;5.90;99.90
18876;DHT22;9570;50.854;13.778;2023-03-12T12:00:18;5.70;99.90
18876;DHT22;9570;50.854;13.778;2023-03-12T12:03:18;6.00;99.90
18876;DHT22;9570;50.854;13.778;2023-03-12T12:20:14;6.60;99.90
18876;DHT22;9570;50.854;13.778;2023-03-12T12:23:04;6.80;99.90
18876;DHT22;9570;50.854;13.778;2023-03-12T12:25:52;6.80;99.90
18876;DHT22;9570;50.854;13.778;2023-03-12T12:28:30;6.50;99.90
18876;DHT22;9570;50.854;13.778;2023-03-12T12:31:17;6.70;99.90
18876;DHT22;9570;50.854;13.778;2023-03-12T12:36:27;6.10;99.90
18876;DHT22;9570;50.854;13.778;2023-03-12T12:38:57;6.20;99.90
18876;DHT22;9570;50.854;13.778;2023-03-12T12:41:27;6.30;99.90
18876;DHT22;9570;50.854;13.778;2023-03-12T12:46:32;6.60;99.90
18876;DHT22;9570;50.854;13.778;2023-03-12T12:49:16;6.30;99.90
18876;DHT22;9570;50.854;13.778;2023-03-12T12:51:47;6.30;99.90
18876;DHT22;9570;50.854;13.778;2023-03-12T12:54:32;6.00;99.90
18876;DHT22;9570;50.854;13.778;2023-03-12T12:57:17;5.90;99.90
18876;DHT22;9570;50.854;13.778;2023-03-12T13:00:19;5.80;99.90
18876;DHT22;9570;50.854;13.778;2023-03-12T13:02:46;5.70;99.90
18876;DHT22;9570;50.854;13.778;2023-03-12T13:05:22;5.90;99.90
18876;DHT22;9570;50.854;13.778;2023-03-12T13:07:49;5.90;99.90
18876;DHT22;9570;50.854;13.778;2023-03-12T13:13:18;6.00;99.90
18876;DHT22;9570;50.854;13.778;2023-03-12T13:15:45;6.10;99.90
18876;DHT22;9570;50.854;13.778;2023-03-12T13:18:26;6.30;99.90
18876;DHT22;9570;50.854;13.778;2023-03-12T13:26:25;6.40;99.90
18876;DHT22;9570;50.854;13.778;2023-03-12T13:33:50;6.40;99.90
18876;DHT22;9570;50.854;13.778;2023-03-12T13:39:17;6.00;99.90
18876;DHT22;9570;50.854;13.778;2023-03-12T13:41:46;6.00;99.90
18876;DHT22;9570;50.854;13.778;2023-03-12T13:50:40;6.00;99.90
18876;DHT22;9570;50.854;13.778;2023-03-12T13:52:42;6.20;99.90
18876;DHT22;9570;50.854;13.778;2023-03-12T13:55:40;6.20;99.90
18876;DHT22;9570;50.854;13.778;2023-03-12T13:58:08;6.20;99.90
18876;DHT22;9570;50.854;13.778;2023-03-12T14:00:37;6.00;99.90
18876;DHT22;9570;50.854;13.778;2023-03-12T14:03:24;6.00;99.90
18876;DHT22;9570;50.854;13.778;2023-03-12T14:05:55;6.10;99.90
18876;DHT22;9570;50.854;13.778;2023-03-12T14:11:30;5.90;99.90
18876;DHT22;9570;50.854;13.778;2023-03-12T14:16:45;5.50;99.90
18876;DHT22;9570;50.854;13.778;2023-03-12T14:19:16;5.20;99.90
18876;DHT22;9570;50.854;13.778;2023-03-12T14:21:44;5.10;99.90
18876;DHT22;9570;50.854;13.778;2023-03-12T14:24:39;5.10;99.90
18876;DHT22;9570;50.854;13.778;2023-03-12T14:27:12;5.10;99.90
18876;DHT22;9570;50.854;13.778;2023-03-12T14:29:42;5.10;99.90
18876;DHT22;9570;50.854;13.778;2023-03-12T14:32:21;4.80;99.90
18876;DHT22;9570;50.854;13.778;2023-03-12T14:35:20;4.80;99.90
18876;DHT22;9570;50.854;13.778;2023-03-12T14:38:23;4.60;99.90
18876;DHT22;9570;50.854;13.778;2023-03-12T14:41:02;4.60;99.90
18876;DHT22;9570;50.854;13.778;2023-03-12T14:43:31;4.50;99.90
18876;DHT22;9570;50.854;13.778;2023-03-12T14:46:04;4.80;99.90
18876;DHT22;9570;50.854;13.778;2023-03-12T14:48:33;4.90;99.90
18876;DHT22;9570;50.854;13.778;2023-03-12T14:51:00;5.10;99.90
18876;DHT22;9570;50.854;13.778;2023-03-12T14:53:31;5.30;99.90
18876;DHT22;9570;50.854;13.778;2023-03-12T14:55:59;5.50;99.90
18876;DHT22;9570;50.854;13.778;2023-03-12T14:58:24;5.70;99.90
18876;DHT22;9570;50.854;13.778;2023-03-12T15:00:59;5.60;99.90
18876;DHT22;9570;50.854;13.778;2023-03-12T15:03:26;5.60;99.90
18876;DHT22;9570;50.854;13.778;2023-03-12T15:05:53;5.40;99.90
18876;DHT22;9570;50.854;13.778;2023-03-12T15:08:19;5.50;99.90
18876;DHT22;9570;50.854;13.778;2023-03-12T15:10:50;5.50;99.90
18876;DHT22;9570;50.854;13.778;2023-03-12T15:13:18;5.50;99.90
18876;DHT22;9570;50.854;13.778;2023-03-12T15:15:46;5.60;99.90
18876;DHT22;9570;50.854;13.778;2023-03-12T15:18:26;5.70;99.90
18876;DHT22;9570;50.854;13.778;2023-03-12T15:20:53;5.60;99.90
18876;DHT22;9570;50.854;13.778;2023-03-12T15:23:21;5.60;99.90
18876;DHT22;9570;50.854;13.778;2023-03-12T15:25:47;5.50;99.90
18876;DHT22;9570;50.854;13.778;2023-03-12T15:30:38;5.50;99.90
18876;DHT22;9570;50.854;13.778;2023-03-12T15:33:26;5.30;99.90
18876;DHT22;9570;50.854;13.778;2023-03-12T15:38:28;5.00;99.90
18876;DHT22;9570;50.854;13.778;2023-03-12T15:40:56;5.10;99.90
18876;DHT22;9570;50.854;13.778;2023-03-12T15:43:23;5.20;99.90
18876;DHT22;9570;50.854;13.778;2023-03-12T15:46:01;5.30;99.90
18876;DHT22;9570;50.854;13.778;2023-03-12T15:48:31;5.50;99.90
18876;DHT22;9570;50.854;13.778;2023-03-12T15:50:57;5.70;99.90
18876;DHT22;9570;50.854;13.778;2023-03-12T15:53:27;5.60;99.90
18876;DHT22;9570;50.854;13.778;2023-03-12T15:58:39;5.60;99.90
18876;DHT22;9570;50.854;13.778;2023-03-12T16:01:10;5.60;99.90
18876;DHT22;9570;50.854;13.778;2023-03-12T16:03:36;5.30;99.90
18876;DHT22;9570;50.854;13.778;2023-03-12T16:06:02;5.20;99.90
18876;DHT22;9570;50.854;13.778;2023-03-12T16:08:39;5.40;99.90
18876;DHT22;9570;50.854;13.778;2023-03-12T16:11:19;5.50;99.90
18876;DHT22;9570;50.854;13.778;2023-03-12T16:13:47;5.50;99.90
18876;DHT22;9570;50.854;13.778;2023-03-12T16:16:14;5.40;99.90
18876;DHT22;9570;50.854;13.778;2023-03-12T16:18:41;5.40;99.90
18876;DHT22;9570;50.854;13.778;2023-03-12T16:21:07;5.50;99.90
18876;DHT22;9570;50.854;13.778;2023-03-12T16:23:33;5.40;99.90
18876;DHT22;9570;50.854;13.778;2023-03-12T16:25:59;5.30;99.90
18876;DHT22;9570;50.854;13.778;2023-03-12T16:28:25;5.40;99.90
18876;DHT22;9570;50.854;13.778;2023-03-12T16:30:51;5.50;99.90
18876;DHT22;9570;50.854;13.778;2023-03-12T16:33:19;5.50;99.90
18876;DHT22;9570;50.854;13.778;2023-03-12T16:35:45;5.50;99.90
18876;DHT22;9570;50.854;13.778;2023-03-12T16:38:10;5.40;99.90
18876;DHT22;9570;50.854;13.778;2023-03-12T16:40:38;5.40;99.90
18876;DHT22;9570;50.854;13.778;2023-03-12T16:43:06;5.40;99.90
18876;DHT22;9570;50.854;13.778;2023-03-12T16:45:35;5.30;99.90
18876;DHT22;9570;50.854;13.778;2023-03-12T16:48:03;5.40;99.90
18876;DHT22;9570;50.854;13.778;2023-03-12T16:50:29;5.40;99.90
18876;DHT22;9570;50.854;13.778;2023-03-12T16:52:55;5.30;99.90
18876;DHT22;9570;50.854;13.778;2023-03-12T16:55:28;5.30;99.90
18876;DHT22;9570;50.854;13.778;2023-03-12T16:57:56;5.20;99.90
18876;DHT22;9570;50.854;13.778;2023-03-12T17:00:25;5.20;99.90
18876;DHT22;9570;50.854;13.778;2023-03-12T17:02:52;5.20;99.90
18876;DHT22;9570;50.854;13.778;2023-03-12T17:05:22;5.20;99.90
18876;DHT22;9570;50.854;13.778;2023-03-12T17:07:48;5.20;99.90
18876;DHT22;9570;50.854;13.778;2023-03-12T17:10:14;5.20;99.90
18876;DHT22;9570;50.854;13.778;2023-03-12T17:12:40;5.20;99.90
18876;DHT22;9570;50.854;13.778;2023-03-12T17:15:23;5.10;99.90
18876;DHT22;9570;50.854;13.778;2023-03-12T17:17:50;5.20;99.90